Pickle Lake Airport
CYPL : now visible

Airfield :











YOU CAN JOIN US ON...

 
LOGIN :

Register | Disclaimer

   EN    FR    IT 

 









Legend :    VFR   Marginal VFR   IFR   Intensive IFR   Very Intensive IFR
Visi :
Ceiling :
>= 8 km
>= 3000ft
5 to 8 km
1000 to 3000 ft
1500m to 5 km
500 to 1000 ft
800 to 1500m
200 to 500 ft
< 800m
< 200 ft
Symbols :   Thunderstorms  Fog  Heavy snow  Heavy precipitations  Wind > 20 kt






- Airport Elevation : 1267 ft
- IATA code : YPL


CYPL - Pickle Lake

CURRENT METAR :
  • 271900Z AUTO 08003KT 050V150 9SM BKN017 M05/M08 A2981 RMK SLP119

EXPIRED METARs :
  • 271853Z AUTO 11004KT 9SM FEW015 BKN020 M05/M08 A2980 RMK SLP120
  • 271800Z AUTO 05005KT 030V120 9SM BKN014 M05/M08 A2980 RMK SLP119
  • 271755Z AUTO 08006KT 050V120 9SM BKN014 M05/M09 A2980 RMK SLP120
  • 271734Z AUTO 08006KT 040V110 9SM SCT014 M06/M09 A2980 RMK SLP119
  • 271700Z AUTO 03005KT 360V080 9SM OVC014 M06/M09 A2981 RMK SLP121

TAF TAF CYPL
Valid from the 27 at 14:00 until the 28 at 02:00 UTC


271340Z 2714/2802 02008KT P6SM OVC020
TEMPO 2714/2722 OVC025
FM272200 07005KT P6SM OVC030
TEMPO 2722/2802 OVC020 RMK FCST BASED ON AUTO OBS. NXT FCST BY 272000Z
CZWG FIR / North America



MET'MAP, your aeronautical weather chart ! - Copyright ORBIFLY December 2007 - Disclaimer

ORBIFLY MET'MAP TEAM :

Programming & Development : Alexandra Zaïnal
Original concept : Baudouin d'Aumeries
Technical & hardware support : Manuel Goepfert
Assistance : Marc-Olivier Méhu




SOURCES & CREDITS :

   NOAA       Earth
Advisory